No particular awareness of the weather is required.    There are no Weather-warnings


Meteo18 Weather Cam more information Meteo18 Weather Cam


Thunder radar more information blitzortung!


Rain radar more information rain snow radar


Visit our other weather sites:

Template documentation
and downloads

And another site



Weather Underground History page Text

Daily Summary for December 4, 2017 Units:  English    Metric   Both
« Previous Day
Next Day »
Daily Weekly Monthly Yearly Custom
  High: Low: Average:
Temperature: TemperatureC °F 1.3 °F 3.7 °F
Dew Point: DewpointC °F 0.9 °F 3.4 °F
Humidity: Humidity % 97 % 97 %
Wind Speed: WindSpeedKMH mph 0.0 mph 1.3 mph
Wind Gust: WindSpeedGustKMH mph - -
Wind:- - SW
Pressure: PressurehPa in 1031.4 in -
Precipitation: 0.5 in    
Historical Graphs
 
 
Tabular Data for December 4, 2017
Time Temperature Dew Point Pressure Wind Wind Speed Wind Gust Humidity Rainfall Rate (Hourly)
TemperatureC °F DewpointC °F PressurehPa in Calm     Humidity % HourlyPrecipMM in
00:02 1.3 °F 0.9 °F 1031.4 in West 1.6 mph 3.2 mph 97 % 0.0 in
00:12 1.3 °F 0.9 °F 1031.4 in Calm   4.8 mph 97 % 0.0 in
00:17 1.3 °F 0.9 °F 1031.4 in Calm   4.8 mph 97 % 0.0 in
00:22 1.4 °F 1.0 °F 1031.7 in Calm   3.2 mph 97 % 0.0 in
00:32 1.4 °F 1.0 °F 1031.7 in Calm   3.2 mph 97 % 0.0 in
00:42 1.4 °F 1.0 °F 1031.7 in Calm   3.2 mph 97 % 0.0 in
00:47 1.4 °F 1.0 °F 1031.7 in Calm   3.2 mph 97 % 0.0 in
00:52 1.5 °F 1.1 °F 1031.7 in Calm   3.2 mph 97 % 0.0 in
00:57 1.5 °F 1.1 °F 1031.7 in WSW 1.6 mph 3.2 mph 97 % 0.0 in
01:02 1.6 °F 1.2 °F 1031.7 in Calm   3.2 mph 97 % 0.0 in
01:07 1.6 °F 1.2 °F 1031.7 in Calm   3.2 mph 97 % 0.0 in
01:12 1.6 °F 1.2 °F 1031.7 in Calm   1.6 mph 97 % 0.0 in
01:17 1.6 °F 1.2 °F 1031.7 in Calm     97 % 0.0 in
01:22 1.6 °F 1.2 °F 1031.7 in Calm   1.6 mph 97 % 0.3 in
01:27 1.6 °F 1.2 °F 1031.7 in Calm   1.6 mph 97 % 0.3 in
01:32 1.7 °F 1.3 °F 1031.7 in Calm   1.6 mph 97 % 0.3 in
01:37 1.7 °F 1.3 °F 1031.7 in Calm   1.6 mph 97 % 0.3 in
01:42 1.7 °F 1.3 °F 1031.7 in SW 1.6 mph 1.6 mph 97 % 0.3 in
01:47 1.8 °F 1.4 °F 1031.7 in Calm   1.6 mph 97 % 0.3 in
01:52 1.8 °F 1.4 °F 1031.7 in Calm   1.6 mph 97 % 0.3 in
01:57 1.8 °F 1.4 °F 1031.7 in Calm   1.6 mph 97 % 0.3 in
02:02 1.8 °F 1.4 °F 1031.7 in Calm     97 % 0.3 in
02:07 1.8 °F 1.4 °F 1031.7 in Calm     97 % 0.3 in
02:12 1.8 °F 1.4 °F 1031.7 in Calm     97 % 0.3 in
02:17 1.8 °F 1.4 °F 1031.7 in Calm     97 % 0.3 in
02:22 1.8 °F 1.4 °F 1031.7 in Calm     97 % 0.0 in
02:27 1.8 °F 1.4 °F 1032.1 in Calm     97 % 0.0 in
02:32 1.8 °F 1.4 °F 1031.7 in Calm     97 % 0.0 in
02:37 1.8 °F 1.4 °F 1032.1 in Calm     97 % 0.0 in
02:42 1.9 °F 1.5 °F 1032.1 in Calm     97 % 0.0 in
02:47 1.9 °F 1.5 °F 1032.1 in Calm     97 % 0.0 in
02:52 1.9 °F 1.5 °F 1032.1 in Calm     97 % 0.0 in
02:57 1.9 °F 1.5 °F 1032.1 in Calm     97 % 0.0 in
03:02 1.9 °F 1.5 °F 1032.1 in Calm     97 % 0.0 in
03:12 2.0 °F 1.6 °F 1032.1 in Calm     97 % 0.0 in
03:17 2.1 °F 1.7 °F 1032.1 in Calm     97 % 0.0 in
03:22 2.1 °F 1.7 °F 1032.1 in Calm     97 % 0.0 in
03:27 2.1 °F 1.7 °F 1032.1 in Calm     97 % 0.0 in
03:32 2.1 °F 1.7 °F 1032.1 in Calm     97 % 0.0 in
03:37 2.2 °F 1.8 °F 1032.1 in SSW 1.6 mph   97 % 0.0 in
03:42 2.3 °F 1.9 °F 1032.1 in WSW 1.6 mph 1.6 mph 97 % 0.0 in
03:52 2.4 °F 2.0 °F 1032.1 in Calm   3.2 mph 97 % 0.0 in
03:57 2.4 °F 2.0 °F 1032.1 in WSW 1.6 mph 3.2 mph 97 % 0.3 in
04:02 2.4 °F 2.0 °F 1032.1 in SW 1.6 mph 3.2 mph 97 % 0.3 in
04:07 2.4 °F 2.0 °F 1032.1 in WSW 3.2 mph 3.2 mph 97 % 0.3 in
04:22 2.4 °F 2.0 °F 1032.1 in West 1.6 mph 6.4 mph 97 % 0.3 in
04:27 2.5 °F 2.1 °F 1032.1 in Calm   4.8 mph 97 % 0.3 in
04:32 2.4 °F 2.0 °F 1032.1 in SW 1.6 mph 3.2 mph 97 % 0.3 in
04:37 2.4 °F 2.0 °F 1032.1 in Calm   1.6 mph 97 % 0.3 in
04:42 2.4 °F 2.0 °F 1032.1 in SSW 1.6 mph 1.6 mph 97 % 0.3 in
04:47 2.4 °F 2.0 °F 1032.1 in Calm   1.6 mph 97 % 0.3 in
04:52 2.4 °F 2.0 °F 1032.1 in Calm   1.6 mph 97 % 0.3 in
04:57 2.4 °F 2.0 °F 1032.1 in Calm   1.6 mph 97 % 0.0 in
05:02 2.4 °F 2.0 °F 1032.1 in Calm   1.6 mph 97 % 0.0 in
05:07 2.4 °F 2.0 °F 1032.1 in Calm   1.6 mph 97 % 0.0 in
05:12 2.5 °F 2.1 °F 1032.1 in Calm   1.6 mph 97 % 0.0 in
05:17 2.5 °F 2.1 °F 1032.4 in Calm   1.6 mph 97 % 0.0 in
05:22 2.4 °F 2.0 °F 1032.4 in SSW 3.2 mph 3.2 mph 97 % 0.0 in
05:32 2.5 °F 2.1 °F 1032.4 in SSW 1.6 mph 3.2 mph 97 % 0.0 in
05:42 2.6 °F 2.2 °F 1032.4 in Calm   3.2 mph 97 % 0.3 in
05:47 2.6 °F 2.2 °F 1032.4 in SE 1.6 mph 1.6 mph 97 % 0.3 in
05:52 2.6 °F 2.2 °F 1032.4 in Calm   1.6 mph 97 % 0.3 in
05:57 2.6 °F 2.2 °F 1032.4 in Calm   1.6 mph 97 % 0.3 in
06:02 2.6 °F 2.2 °F 1032.4 in Calm   1.6 mph 97 % 0.3 in
06:12 2.6 °F 2.2 °F 1032.4 in Calm   1.6 mph 97 % 0.3 in
06:17 2.6 °F 2.2 °F 1032.7 in Calm   1.6 mph 97 % 0.3 in
06:22 2.6 °F 2.2 °F 1032.7 in SW 1.6 mph 1.6 mph 97 % 0.3 in
06:27 2.6 °F 2.2 °F 1032.7 in SW 1.6 mph 3.2 mph 97 % 0.3 in
06:32 2.6 °F 2.2 °F 1032.7 in Calm   3.2 mph 97 % 0.3 in
06:37 2.6 °F 2.2 °F 1032.7 in SW 1.6 mph 3.2 mph 97 % 0.3 in
06:42 2.7 °F 2.3 °F 1032.7 in WSW 1.6 mph 3.2 mph 97 % 0.0 in
06:47 2.7 °F 2.3 °F 1033.1 in Calm   3.2 mph 97 % 0.0 in
06:52 2.7 °F 2.3 °F 1033.1 in Calm   3.2 mph 97 % 0.0 in
06:57 2.7 °F 2.3 °F 1033.1 in Calm   3.2 mph 97 % 0.0 in
07:02 2.7 °F 2.3 °F 1033.1 in Calm   1.6 mph 97 % 0.0 in
07:07 2.7 °F 2.3 °F 1033.1 in Calm   1.6 mph 97 % 0.0 in
07:12 2.7 °F 2.3 °F 1033.1 in Calm   1.6 mph 97 % 0.0 in
07:22 2.7 °F 2.3 °F 1033.1 in SW 1.6 mph 3.2 mph 97 % 0.0 in
07:27 2.7 °F 2.3 °F 1033.1 in SSW 1.6 mph 6.4 mph 97 % 0.0 in
07:32 2.7 °F 2.3 °F 1033.1 in SW 4.8 mph 6.4 mph 97 % 0.0 in
07:37 2.7 °F 2.3 °F 1033.1 in WSW 3.2 mph 6.4 mph 97 % 0.0 in
07:42 2.8 °F 2.4 °F 1033.1 in SW 3.2 mph 6.4 mph 97 % 0.0 in
07:47 2.8 °F 2.4 °F 1033.4 in SW 3.2 mph 6.4 mph 97 % 0.0 in
07:52 2.8 °F 2.4 °F 1033.4 in SW 3.2 mph 4.8 mph 97 % 0.0 in
07:57 2.8 °F 2.4 °F 1033.4 in West 1.6 mph 6.4 mph 97 % 0.0 in
08:02 2.8 °F 2.4 °F 1033.7 in West 3.2 mph 6.4 mph 97 % 0.0 in
08:07 2.8 °F 2.4 °F 1033.7 in WNW 1.6 mph 6.4 mph 97 % 0.0 in
08:12 2.8 °F 2.5 °F 1033.7 in Calm   6.4 mph 98 % 0.0 in
08:17 2.9 °F 2.6 °F 1033.7 in WSW 3.2 mph 6.4 mph 98 % 0.0 in
08:22 2.9 °F 2.6 °F 1033.7 in WSW 1.6 mph 4.8 mph 98 % 0.0 in
08:27 2.9 °F 2.6 °F 1033.7 in SW 1.6 mph 4.8 mph 98 % 0.0 in
08:32 2.9 °F 2.6 °F 1033.7 in SSW 1.6 mph 3.2 mph 98 % 0.0 in
08:42 2.9 °F 2.6 °F 1033.7 in SW 3.2 mph 8.0 mph 98 % 0.0 in
08:47 2.9 °F 2.6 °F 1033.7 in SSW 3.2 mph 8.0 mph 98 % 0.0 in
08:52 3.0 °F 2.7 °F 1033.7 in SW 4.8 mph 8.0 mph 98 % 0.0 in
08:57 3.0 °F 2.7 °F 1034.1 in SW 3.2 mph 8.0 mph 98 % 0.0 in
09:02 3.1 °F 2.8 °F 1034.1 in SW 8.0 mph 8.0 mph 98 % 0.0 in
09:07 3.1 °F 2.8 °F 1034.1 in WSW 4.8 mph 9.7 mph 98 % 0.0 in
09:12 3.1 °F 2.8 °F 1034.1 in WSW 1.6 mph 9.7 mph 98 % 0.0 in
09:22 3.2 °F 2.9 °F 1034.4 in WSW 1.6 mph 6.4 mph 98 % 0.0 in
09:27 3.2 °F 2.9 °F 1034.4 in Calm   6.4 mph 98 % 0.0 in
09:32 3.3 °F 3.0 °F 1034.4 in Calm   6.4 mph 98 % 0.0 in
09:42 3.3 °F 3.0 °F 1034.8 in SSW 1.6 mph 1.6 mph 98 % 0.0 in
09:47 3.3 °F 3.0 °F 1034.8 in Calm   1.6 mph 98 % 0.0 in
09:57 3.4 °F 3.1 °F 1034.8 in SW 3.2 mph 8.0 mph 98 % 0.0 in
10:02 3.4 °F 3.1 °F 1034.8 in SW 6.4 mph 8.0 mph 98 % 0.0 in
10:07 3.4 °F 3.1 °F 1034.8 in SW 1.6 mph 8.0 mph 98 % 0.0 in
10:12 3.4 °F 3.1 °F 1034.8 in SW 3.2 mph 8.0 mph 98 % 0.0 in
10:17 3.4 °F 3.1 °F 1034.8 in Calm   8.0 mph 98 % 0.0 in
10:22 3.5 °F 3.2 °F 1034.8 in SW 1.6 mph 8.0 mph 98 % 0.0 in
10:27 3.5 °F 3.2 °F 1035.1 in WSW 1.6 mph 8.0 mph 98 % 0.0 in
10:32 3.6 °F 3.3 °F 1035.1 in SW 1.6 mph 6.4 mph 98 % 0.0 in
10:37 3.6 °F 3.3 °F 1035.1 in SW 1.6 mph 6.4 mph 98 % 0.0 in
10:42 3.6 °F 3.3 °F 1035.1 in SSW 4.8 mph 6.4 mph 98 % 0.0 in
10:52 3.7 °F 3.4 °F 1035.1 in SW 1.6 mph 8.0 mph 98 % 0.0 in
10:57 3.7 °F 3.4 °F 1035.1 in SW 3.2 mph 8.0 mph 98 % 0.0 in
11:02 3.7 °F 3.4 °F 1035.4 in SW 1.6 mph 8.0 mph 98 % 0.0 in
11:07 3.8 °F 3.5 °F 1035.4 in SW 3.2 mph 6.4 mph 98 % 0.0 in
11:12 3.8 °F 3.5 °F 1035.1 in SW 1.6 mph 6.4 mph 98 % 0.0 in
11:17 3.8 °F 3.5 °F 1035.4 in SSW 1.6 mph 6.4 mph 98 % 0.0 in
11:22 3.8 °F 3.5 °F 1035.1 in South 1.6 mph 6.4 mph 98 % 0.0 in
11:27 3.9 °F 3.6 °F 1035.1 in SW 4.8 mph 4.8 mph 98 % 0.0 in
11:32 3.9 °F 3.6 °F 1035.4 in SSW 4.8 mph 6.4 mph 98 % 0.0 in
11:37 3.9 °F 3.6 °F 1035.1 in SW 4.8 mph 6.4 mph 98 % 0.0 in
11:42 4.0 °F 3.7 °F 1035.1 in SW 4.8 mph 6.4 mph 98 % 0.0 in
11:47 4.0 °F 3.7 °F 1035.1 in SSW 3.2 mph 11.3 mph 98 % 0.0 in
11:52 4.0 °F 3.7 °F 1035.1 in SSW 6.4 mph 11.3 mph 98 % 0.0 in
11:57 4.1 °F 3.8 °F 1035.1 in SW 3.2 mph 11.3 mph 98 % 0.0 in
12:02 4.1 °F 3.8 °F 1035.1 in SSW 3.2 mph 8.0 mph 98 % 0.0 in
12:12 4.3 °F 4.0 °F 1035.1 in SW 1.6 mph 11.3 mph 98 % 0.0 in
12:17 4.3 °F 4.0 °F 1035.1 in WSW 4.8 mph 9.7 mph 98 % 0.0 in
12:22 4.3 °F 4.0 °F 1035.1 in Calm   9.7 mph 98 % 0.0 in
12:27 4.4 °F 4.1 °F 1035.1 in SW 4.8 mph 9.7 mph 98 % 0.0 in
12:32 4.4 °F 4.1 °F 1035.1 in SSW 8.0 mph 9.7 mph 98 % 0.0 in
12:37 4.4 °F 4.1 °F 1035.1 in SSW 6.4 mph 9.7 mph 98 % 0.0 in
12:47 4.4 °F 4.1 °F 1035.1 in SW 4.8 mph 12.9 mph 98 % 0.0 in
12:52 4.4 °F 4.1 °F 1035.1 in SW 3.2 mph 12.9 mph 98 % 0.0 in
12:57 4.4 °F 4.1 °F 1035.1 in SW 4.8 mph 9.7 mph 98 % 0.0 in
13:02 4.5 °F 4.2 °F 1035.1 in SW 4.8 mph 9.7 mph 98 % 0.0 in
13:07 4.5 °F 4.2 °F 1035.1 in Calm   9.7 mph 98 % 0.0 in
13:12 4.6 °F 4.3 °F 1035.1 in WSW 4.8 mph 9.7 mph 98 % 0.0 in
13:17 4.7 °F 4.4 °F 1035.1 in WSW 4.8 mph 9.7 mph 98 % 0.0 in
13:22 4.8 °F 4.5 °F 1035.1 in West 3.2 mph 9.7 mph 98 % 0.0 in
13:27 4.9 °F 4.6 °F 1035.1 in WSW 4.8 mph 9.7 mph 98 % 0.0 in
13:32 4.9 °F 4.6 °F 1035.1 in SW 3.2 mph 9.7 mph 98 % 0.0 in
13:37 5.1 °F 4.8 °F 1035.1 in SW 4.8 mph 9.7 mph 98 % 0.0 in
13:42 5.1 °F 4.8 °F 1035.1 in Calm   9.7 mph 98 % 0.0 in
13:47 5.2 °F 4.9 °F 1035.1 in West 1.6 mph 6.4 mph 98 % 0.0 in
13:52 5.2 °F 4.9 °F 1034.8 in Calm   4.8 mph 98 % 0.0 in
13:57 5.3 °F 5.0 °F 1035.1 in WSW 4.8 mph 6.4 mph 98 % 0.0 in
14:02 5.3 °F 5.0 °F 1035.1 in West 4.8 mph 8.0 mph 98 % 0.0 in
14:12 5.4 °F 5.1 °F 1035.1 in West 1.6 mph 8.0 mph 98 % 0.0 in
14:17 5.5 °F 5.2 °F 1035.1 in Calm   6.4 mph 98 % 0.0 in
14:22 5.6 °F 5.3 °F 1035.1 in Calm   4.8 mph 98 % 0.0 in
14:27 5.6 °F 5.3 °F 1034.8 in Calm   4.8 mph 98 % 0.0 in
14:32 5.7 °F 5.4 °F 1034.8 in Calm   3.2 mph 98 % 0.0 in
14:42 5.7 °F 5.4 °F 1035.1 in Calm   3.2 mph 98 % 0.0 in
14:47 5.7 °F 5.4 °F 1035.1 in SSW 3.2 mph 4.8 mph 98 % 0.0 in
14:52 5.6 °F 5.3 °F 1035.1 in Calm   4.8 mph 98 % 0.0 in
14:57 5.7 °F 5.4 °F 1035.1 in SW 6.4 mph 6.4 mph 98 % 0.0 in
15:02 5.7 °F 5.4 °F 1035.1 in SW 3.2 mph 6.4 mph 98 % 0.0 in
15:07 5.6 °F 5.3 °F 1035.1 in SW 6.4 mph 6.4 mph 98 % 0.0 in
15:12 5.6 °F 5.3 °F 1035.1 in SSW 4.8 mph 8.0 mph 98 % 0.0 in
15:17 5.6 °F 5.3 °F 1035.1 in SW 1.6 mph 8.0 mph 98 % 0.0 in
15:22 5.6 °F 5.3 °F 1035.1 in SW 4.8 mph 8.0 mph 98 % 0.0 in
15:27 5.6 °F 5.3 °F 1035.1 in WSW 4.8 mph 8.0 mph 98 % 0.0 in
15:32 5.6 °F 5.3 °F 1035.1 in West 4.8 mph 8.0 mph 98 % 0.0 in
15:37 5.5 °F 5.2 °F 1035.4 in West 4.8 mph 8.0 mph 98 % 0.0 in
15:42 5.5 °F 5.2 °F 1035.4 in WSW 4.8 mph 8.0 mph 98 % 0.0 in
15:47 5.5 °F 5.2 °F 1035.4 in West 3.2 mph 8.0 mph 98 % 0.0 in
15:52 5.5 °F 5.2 °F 1035.4 in West 4.8 mph 8.0 mph 98 % 0.0 in
16:02 5.5 °F 5.2 °F 1035.4 in West 3.2 mph 8.0 mph 98 % 0.0 in
16:12 5.4 °F 5.1 °F 1035.4 in WSW 3.2 mph 8.0 mph 98 % 0.0 in
16:17 5.4 °F 5.1 °F 1035.4 in Calm   8.0 mph 98 % 0.0 in
16:22 5.4 °F 5.1 °F 1035.4 in SSW 1.6 mph 6.4 mph 98 % 0.0 in
16:27 5.5 °F 5.2 °F 1035.4 in WSW 1.6 mph 6.4 mph 98 % 0.0 in
16:32 5.5 °F 5.2 °F 1035.4 in Calm   6.4 mph 98 % 0.0 in
16:42 5.5 °F 5.2 °F 1035.8 in Calm   4.8 mph 98 % 0.0 in
16:47 5.5 °F 5.2 °F 1035.8 in Calm   1.6 mph 98 % 0.0 in
16:52 5.5 °F 5.2 °F 1035.8 in Calm   1.6 mph 98 % 0.0 in
17:02 5.6 °F 5.3 °F 1035.8 in WNW 3.2 mph 3.2 mph 98 % 0.0 in
17:07 5.6 °F 5.3 °F 1035.8 in WNW 3.2 mph 4.8 mph 98 % 0.0 in
17:12 5.6 °F 5.3 °F 1035.8 in WNW 1.6 mph 4.8 mph 98 % 0.0 in
17:17 5.6 °F 5.3 °F 1035.8 in Calm   4.8 mph 98 % 0.0 in
17:22 5.6 °F 5.3 °F 1035.8 in Calm   3.2 mph 98 % 0.0 in
17:32 5.6 °F 5.3 °F 1036.1 in West 1.6 mph 4.8 mph 98 % 0.0 in
17:37 5.6 °F 5.3 °F 1036.1 in Calm   4.8 mph 98 % 0.0 in
17:47 5.6 °F 5.3 °F 1036.1 in Calm   3.2 mph 98 % 0.0 in
17:52 5.6 °F 5.3 °F 1036.1 in Calm   1.6 mph 98 % 0.0 in
17:57 5.6 °F 5.3 °F 1036.1 in Calm   3.2 mph 98 % 0.0 in
18:02 5.6 °F 5.3 °F 1036.5 in Calm   3.2 mph 98 % 0.0 in
18:07 5.6 °F 5.3 °F 1036.5 in Calm   3.2 mph 98 % 0.0 in
18:12 5.6 °F 5.3 °F 1036.5 in Calm   1.6 mph 98 % 0.0 in
18:17 5.6 °F 5.3 °F 1036.5 in Calm   1.6 mph 98 % 0.0 in
18:22 5.6 °F 5.3 °F 1036.5 in Calm   1.6 mph 98 % 0.0 in
18:32 5.6 °F 5.3 °F 1036.5 in Calm   3.2 mph 98 % 0.0 in
18:42 5.4 °F 5.1 °F 1036.5 in Calm   3.2 mph 98 % 0.0 in
18:47 5.4 °F 5.1 °F 1036.5 in West 1.6 mph 3.2 mph 98 % 0.0 in
18:57 5.3 °F 5.0 °F 1036.5 in Calm   4.8 mph 98 % 0.0 in
19:02 5.2 °F 4.9 °F 1036.5 in Calm   3.2 mph 98 % 0.0 in
19:07 5.2 °F 4.9 °F 1036.5 in Calm   1.6 mph 98 % 0.0 in
19:12 5.1 °F 4.8 °F 1036.8 in Calm   1.6 mph 98 % 0.0 in
19:17 5.2 °F 4.9 °F 1036.8 in Calm     98 % 0.0 in
19:27 5.2 °F 4.9 °F 1036.8 in Calm     98 % 0.0 in
19:32 5.1 °F 4.8 °F 1037.1 in Calm     98 % 0.0 in
19:37 5.1 °F 4.8 °F 1037.1 in Calm     98 % 0.0 in
19:42 5.1 °F 4.8 °F 1037.1 in Calm     98 % 0.0 in
19:47 5.1 °F 4.8 °F 1037.1 in Calm   1.6 mph 98 % 0.0 in
19:52 5.1 °F 4.8 °F 1037.1 in Calm   1.6 mph 98 % 0.0 in
20:02 5.1 °F 4.8 °F 1037.1 in Calm   1.6 mph 98 % 0.0 in
20:07 5.1 °F 4.8 °F 1037.5 in Calm   3.2 mph 98 % 0.0 in
20:12 5.1 °F 4.8 °F 1037.1 in Calm   3.2 mph 98 % 0.0 in
20:17 5.1 °F 4.8 °F 1037.1 in Calm   3.2 mph 98 % 0.0 in
20:22 5.1 °F 4.8 °F 1037.5 in Calm   1.6 mph 98 % 0.0 in
20:27 5.1 °F 4.8 °F 1037.5 in Calm   3.2 mph 98 % 0.0 in
20:32 5.1 °F 4.8 °F 1037.1 in Calm   3.2 mph 98 % 0.0 in
20:37 5.1 °F 4.8 °F 1037.1 in Calm   3.2 mph 98 % 0.0 in
20:42 5.1 °F 4.8 °F 1037.1 in Calm   3.2 mph 98 % 0.0 in
20:47 5.1 °F 4.8 °F 1037.1 in Calm   1.6 mph 98 % 0.0 in
20:52 5.1 °F 4.8 °F 1037.1 in Calm   1.6 mph 98 % 0.0 in
21:02 5.0 °F 4.7 °F 1037.1 in Calm     98 % 0.0 in
21:12 4.7 °F 4.4 °F 1037.5 in Calm     98 % 0.0 in
21:17 4.5 °F 4.2 °F 1037.5 in Calm     98 % 0.0 in
21:22 4.3 °F 4.0 °F 1037.5 in Calm     98 % 0.0 in
21:27 4.2 °F 3.8 °F 1037.5 in Calm     97 % 0.0 in
21:32 4.2 °F 3.9 °F 1037.5 in Calm     98 % 0.0 in
21:42 4.1 °F 3.8 °F 1037.5 in Calm     98 % 0.0 in
21:47 3.9 °F 3.6 °F 1037.8 in Calm     98 % 0.0 in
21:52 3.8 °F 3.5 °F 1037.8 in Calm     98 % 0.0 in
21:57 3.7 °F 3.3 °F 1037.8 in Calm     97 % 0.0 in
22:02 3.6 °F 3.3 °F 1037.8 in Calm     98 % 0.0 in
22:07 3.6 °F 3.3 °F 1037.8 in Calm     98 % 0.0 in
22:12 3.5 °F 3.2 °F 1037.8 in Calm     98 % 0.0 in
22:17 3.4 °F 3.1 °F 1037.8 in Calm     98 % 0.0 in
22:22 3.4 °F 3.1 °F 1037.8 in Calm     98 % 0.0 in
22:27 3.4 °F 3.1 °F 1037.8 in Calm     98 % 0.0 in
22:32 3.3 °F 3.0 °F 1037.8 in Calm     98 % 0.0 in
22:42 3.3 °F 3.0 °F 1037.8 in Calm   1.6 mph 98 % 0.0 in
22:47 3.3 °F 3.0 °F 1037.8 in Calm   1.6 mph 98 % 0.0 in
22:52 3.4 °F 3.1 °F 1037.8 in Calm   1.6 mph 98 % 0.0 in
23:02 3.6 °F 3.3 °F 1037.8 in Calm   1.6 mph 98 % 0.0 in
23:07 3.5 °F 3.2 °F 1038.1 in Calm   1.6 mph 98 % 0.0 in
23:12 3.5 °F 3.2 °F 1038.1 in Calm   1.6 mph 98 % 0.0 in
23:17 3.5 °F 3.2 °F 1038.1 in Calm   1.6 mph 98 % 0.0 in
23:22 3.5 °F 3.2 °F 1038.1 in WNW 1.6 mph 1.6 mph 98 % 0.0 in
23:27 3.6 °F 3.3 °F 1038.1 in Calm   1.6 mph 98 % 0.0 in
23:32 3.6 °F 3.3 °F 1038.1 in Calm   1.6 mph 98 % 0.0 in
23:37 3.6 °F 3.3 °F 1038.1 in Calm   1.6 mph 98 % 0.0 in
23:42 3.7 °F 3.4 °F 1038.1 in WNW 1.6 mph 1.6 mph 98 % 0.0 in
23:47 3.7 °F 3.4 °F 1038.1 in Calm   1.6 mph 98 % 0.0 in
23:52 3.6 °F 3.3 °F 1038.1 in Calm   1.6 mph 98 % 0.0 in
23:57 3.7 °F 3.4 °F 1038.1 in SW 1.6 mph 1.6 mph 98 % 0.0 in
Meteo18
Compliments of Weather Underground - 4 mb

Script developed by  Jim McMurry - jmcmurry@mwt.net Adapted for the template by  Wim van der Kuil - Leuven-Template.eu

You find our weather info also at:

European Weather Network

Weather Underground

Equipment we use:

Weather-station
Davis Vue

Weather-program
Meteobridge

Weather-server
Raspberry PI 2 B+

Provider
1 and 1

Davis Vue

Meteobridge

Raspberry PI 2 B+

1 and 1